createdAt,value
2023-05-16T00:04:53.981Z,5.00
2023-05-16T00:10:16.315Z,5.26
2023-05-16T00:15:40.093Z,5.16
2023-05-16T00:21:04.940Z,5.12
2023-05-16T00:26:27.973Z,5.86
2023-05-16T00:31:52.972Z,5.30
2023-05-16T00:37:15.383Z,6.02
2023-05-16T00:42:39.304Z,6.47
2023-05-16T00:47:58.551Z,6.56
2023-05-16T00:53:23.277Z,7.04
2023-05-16T00:59:12.458Z,7.89
2023-05-16T01:04:34.306Z,6.82
2023-05-16T01:09:57.840Z,7.08
2023-05-16T01:15:23.110Z,6.67
2023-05-16T01:20:48.670Z,6.84
2023-05-16T01:26:09.302Z,7.26
2023-05-16T01:31:34.071Z,6.89
2023-05-16T01:36:51.891Z,7.98
2023-05-16T01:42:15.171Z,8.24
2023-05-16T01:47:39.944Z,6.88
2023-05-16T01:53:04.628Z,7.81
2023-05-16T01:58:29.332Z,7.74
2023-05-16T02:03:47.076Z,8.16
2023-05-16T02:09:09.805Z,7.22
2023-05-16T02:14:33.619Z,7.52
2023-05-16T02:19:58.709Z,7.22
2023-05-16T02:25:25.300Z,7.42
2023-05-16T02:30:50.844Z,7.93
2023-05-16T02:36:18.916Z,8.04
2023-05-16T02:41:40.946Z,6.86
2023-05-16T02:47:06.080Z,7.88
2023-05-16T02:52:31.265Z,7.53
2023-05-16T02:57:56.105Z,7.65
2023-05-16T03:03:20.433Z,7.37
2023-05-16T03:08:44.228Z,7.08
2023-05-16T03:14:07.658Z,7.60
2023-05-16T03:19:32.091Z,7.98
2023-05-16T03:24:57.188Z,7.82
2023-05-16T03:30:19.398Z,8.07
2023-05-16T03:35:43.737Z,8.22
2023-05-16T03:41:08.956Z,7.30
2023-05-16T03:46:57.834Z,8.88
2023-05-16T03:52:20.758Z,7.61
2023-05-16T03:57:45.741Z,7.16
2023-05-16T04:03:35.074Z,8.69
2023-05-16T04:08:58.626Z,7.21
2023-05-16T04:14:21.412Z,6.94
2023-05-16T04:19:45.955Z,6.13
2023-05-16T04:25:09.110Z,5.85
2023-05-16T04:30:27.055Z,6.08
2023-05-16T04:35:51.745Z,5.60
2023-05-16T04:41:16.525Z,5.32
2023-05-16T04:46:39.815Z,5.29
2023-05-16T04:52:02.281Z,4.83
2023-05-16T04:57:24.673Z,5.24
2023-05-16T05:02:48.698Z,4.82
2023-05-16T05:08:06.778Z,5.11
2023-05-16T05:13:25.592Z,4.89
2023-05-16T05:18:50.531Z,5.21
2023-05-16T05:24:11.966Z,4.58
2023-05-16T05:29:56.922Z,5.52
2023-05-16T05:35:19.769Z,4.36
2023-05-16T05:40:44.887Z,4.66
2023-05-16T05:46:10.360Z,4.52
2023-05-16T05:51:35.052Z,3.83
2023-05-16T05:56:59.928Z,3.66
2023-05-16T06:02:24.004Z,3.25
2023-05-16T06:07:47.180Z,3.59
2023-05-16T06:13:23.968Z,3.94
2023-05-16T06:18:45.873Z,2.92
2023-05-16T06:24:09.329Z,2.64
2023-05-16T06:29:33.882Z,2.43
2023-05-16T06:34:58.969Z,2.02
2023-05-16T06:40:22.483Z,1.04
2023-05-16T06:45:45.056Z,0.57
2023-05-16T06:51:09.004Z,0.57
2023-05-16T06:56:31.588Z,0.61
2023-05-16T07:02:22.012Z,0.60
2023-05-16T07:07:44.612Z,0.46
2023-05-16T07:13:09.569Z,0.62
2023-05-16T07:18:33.632Z,0.52
2023-05-16T07:23:52.004Z,0.52
2023-05-16T07:29:13.778Z,0.61
2023-05-16T07:34:38.354Z,0.31
2023-05-16T07:40:02.113Z,0.31
2023-05-16T07:45:52.443Z,0.38
2023-05-16T07:51:38.113Z,0.35
2023-05-16T07:57:00.958Z,0.28
2023-05-16T08:02:19.512Z,0.51
2023-05-16T08:08:00.049Z,0.51
2023-05-16T08:13:21.436Z,0.30
2023-05-16T08:18:40.464Z,0.29
2023-05-16T08:23:58.936Z,0.42
2023-05-16T08:29:18.854Z,0.47
2023-05-16T08:34:52.369Z,0.47
2023-05-16T08:40:19.820Z,0.35
2023-05-16T08:45:44.404Z,0.41
2023-05-16T08:51:08.703Z,0.36
2023-05-16T08:56:33.516Z,0.27
2023-05-16T09:01:55.276Z,0.19
2023-05-16T09:07:15.513Z,0.16
2023-05-16T09:12:39.657Z,0.17
2023-05-16T09:18:02.308Z,0.31
2023-05-16T09:23:23.382Z,0.12
2023-05-16T09:28:48.234Z,0.13
2023-05-16T09:34:12.126Z,0.14
2023-05-16T09:39:37.817Z,0.18
2023-05-16T09:45:03.529Z,0.14
2023-05-16T09:50:29.783Z,0.29
2023-05-16T09:55:49.360Z,0.19
2023-05-16T10:01:15.044Z,0.16
2023-05-16T10:06:39.224Z,0.26
2023-05-16T10:12:03.108Z,0.26
2023-05-16T10:17:25.746Z,0.23
2023-05-16T10:22:48.860Z,0.45
2023-05-16T10:42:33.706Z,0.42
2023-05-16T10:47:54.575Z,0.28
2023-05-16T10:53:17.165Z,0.19
2023-05-16T10:58:34.613Z,0.28
2023-05-16T11:04:04.787Z,0.27
2023-05-16T11:09:28.498Z,0.27
2023-05-16T11:14:53.104Z,0.37
2023-05-16T11:20:17.676Z,0.40
2023-05-16T11:26:06.074Z,0.56
2023-05-16T11:31:29.785Z,0.40
2023-05-16T11:36:52.280Z,0.37
2023-05-16T11:42:32.436Z,0.29
2023-05-16T11:47:56.081Z,0.73
2023-05-16T11:53:17.425Z,0.34
2023-05-16T11:59:00.196Z,0.61
2023-05-16T12:04:22.010Z,0.50
2023-05-16T12:09:45.071Z,0.64
2023-05-16T12:15:08.301Z,0.87
2023-05-16T12:20:29.481Z,0.39
2023-05-16T12:25:53.775Z,0.71
2023-05-16T12:31:29.926Z,0.33
2023-05-16T12:36:43.491Z,0.53
2023-05-16T12:42:08.784Z,0.45
2023-05-16T12:47:33.037Z,0.30
2023-05-16T12:52:59.447Z,0.61
2023-05-16T12:58:20.214Z,0.47
2023-05-16T13:03:39.356Z,0.58
2023-05-16T13:09:02.299Z,0.51
2023-05-16T13:14:24.176Z,0.54
2023-05-16T13:19:48.958Z,0.75
2023-05-16T13:25:12.380Z,0.51
2023-05-16T13:30:37.200Z,0.36
2023-05-16T13:36:02.339Z,0.36
2023-05-16T13:41:27.944Z,0.41
2023-05-16T13:47:11.564Z,0.60
2023-05-16T13:52:28.825Z,0.52
2023-05-16T13:57:49.878Z,0.58
2023-05-16T14:03:29.033Z,0.46
2023-05-16T14:08:51.603Z,0.44
2023-05-16T14:14:16.668Z,0.88
2023-05-16T14:19:41.807Z,0.42
2023-05-16T14:25:02.204Z,0.36
2023-05-16T14:30:26.412Z,0.37
2023-05-16T14:35:49.343Z,0.42
2023-05-16T14:41:12.153Z,0.23
2023-05-16T14:46:37.145Z,0.50
2023-05-16T14:51:59.103Z,0.51
2023-05-16T14:57:25.230Z,0.43
2023-05-16T15:02:50.266Z,0.57
2023-05-16T15:08:14.357Z,0.53
2023-05-16T15:13:35.737Z,0.54
2023-05-16T15:19:01.220Z,0.27
2023-05-16T15:24:26.521Z,0.34
2023-05-16T15:29:50.153Z,0.35
2023-05-16T15:35:30.409Z,0.49
2023-05-16T15:41:13.163Z,0.35
2023-05-16T15:46:14.334Z,0.47
2023-05-16T15:51:32.033Z,0.48
2023-05-16T15:56:55.421Z,0.44
2023-05-16T16:02:17.451Z,0.33
2023-05-16T16:07:38.916Z,0.35
2023-05-16T16:13:00.035Z,0.84
2023-05-16T16:18:21.086Z,0.26
2023-05-16T16:23:46.286Z,0.56
2023-05-16T16:29:09.070Z,0.36
2023-05-16T16:34:33.392Z,0.28
2023-05-16T16:39:57.723Z,0.36
2023-05-16T16:45:22.634Z,0.38
2023-05-16T16:50:44.874Z,0.35
2023-05-16T16:56:04.629Z,0.23
2023-05-16T17:01:29.948Z,0.81
2023-05-16T17:06:53.744Z,0.44
2023-05-16T17:12:14.772Z,0.21
2023-05-16T17:17:38.308Z,0.55
2023-05-16T17:22:59.100Z,0.47
2023-05-16T17:28:23.049Z,0.25
2023-05-16T17:33:50.063Z,0.36
2023-05-16T17:39:15.627Z,0.40
2023-05-16T17:44:40.987Z,0.49
2023-05-16T17:50:02.163Z,0.64
2023-05-16T17:55:28.426Z,0.28
2023-05-16T18:00:51.913Z,0.63
2023-05-16T18:06:16.702Z,0.35
2023-05-16T18:11:41.912Z,0.41
2023-05-16T18:17:02.754Z,0.21
2023-05-16T18:22:27.585Z,0.40
2023-05-16T18:27:52.424Z,0.44
2023-05-16T18:33:14.034Z,0.36
2023-05-16T18:38:39.168Z,0.26
2023-05-16T18:44:01.416Z,0.25
2023-05-16T18:49:26.226Z,0.49
2023-05-16T18:54:50.101Z,0.44
2023-05-16T19:00:15.246Z,0.33
2023-05-16T19:05:40.330Z,0.24
2023-05-16T19:11:04.358Z,0.41
2023-05-16T19:16:28.644Z,0.38
2023-05-16T19:21:52.882Z,0.31
2023-05-16T19:27:16.582Z,0.27
2023-05-16T19:32:41.357Z,0.55
2023-05-16T19:38:04.233Z,0.63
2023-05-16T19:43:55.873Z,0.47
2023-05-16T19:49:20.129Z,0.65
2023-05-16T19:54:43.279Z,1.12
2023-05-16T20:00:03.922Z,0.24
2023-05-16T20:05:32.357Z,0.44
2023-05-16T20:10:55.663Z,0.30
2023-05-16T20:16:14.704Z,0.37
2023-05-16T20:21:35.504Z,0.78
2023-05-16T20:26:59.861Z,0.34
2023-05-16T20:32:20.938Z,0.71
2023-05-16T20:37:42.374Z,0.40
2023-05-16T20:43:07.124Z,0.65
2023-05-16T20:48:31.938Z,0.28
2023-05-16T20:53:57.016Z,0.39
2023-05-16T20:59:17.193Z,0.36
2023-05-16T21:04:38.513Z,0.47
2023-05-16T21:10:02.429Z,0.26
2023-05-16T21:15:27.208Z,0.22
2023-05-16T21:20:50.564Z,0.35
2023-05-16T21:26:12.167Z,0.65
2023-05-16T21:31:51.704Z,0.62
2023-05-16T21:37:10.256Z,0.45
2023-05-16T21:42:34.883Z,0.52
2023-05-16T21:47:58.852Z,0.31
2023-05-16T21:53:21.561Z,0.42
2023-05-16T21:58:45.096Z,0.44
2023-05-16T22:04:09.229Z,0.43
2023-05-16T22:09:54.551Z,0.40
2023-05-16T22:15:16.679Z,0.54
2023-05-16T22:20:41.673Z,0.97
2023-05-16T22:26:06.768Z,0.41
2023-05-16T22:31:51.724Z,0.46
2023-05-16T22:37:13.838Z,0.50
2023-05-16T22:43:17.620Z,0.35
2023-05-16T22:48:40.465Z,0.76
2023-05-16T22:54:05.587Z,0.48
2023-05-16T22:59:30.025Z,0.37
2023-05-16T23:04:53.810Z,0.37
2023-05-16T23:10:17.512Z,0.56
2023-05-16T23:15:39.257Z,0.57
2023-05-16T23:21:04.019Z,0.41
2023-05-16T23:26:21.497Z,0.49
2023-05-16T23:31:41.743Z,0.30
2023-05-16T23:37:07.913Z,0.60
2023-05-16T23:42:31.993Z,0.35
2023-05-16T23:47:56.753Z,0.75
2023-05-16T23:53:20.432Z,0.63
2023-05-16T23:58:46.526Z,0.41
